sensor_id;sensor_type;location;lat;lon;timestamp;temperature;humidity
79010;DHT22;73031;44.726;37.760;2024-03-23T00:53:54;8.92;73.48
79010;DHT22;73031;44.726;37.760;2024-03-23T00:54:55;8.89;73.87
79010;DHT22;73031;44.726;37.760;2024-03-23T00:55:56;8.90;73.87
79010;DHT22;73031;44.726;37.760;2024-03-23T00:56:57;8.92;73.39
79010;DHT22;73031;44.726;37.760;2024-03-23T00:57:58;8.90;73.42
79010;DHT22;73031;44.726;37.760;2024-03-23T00:59:00;8.92;73.67
79010;DHT22;73031;44.726;37.760;2024-03-23T01:00:01;8.90;73.51
79010;DHT22;73031;44.726;37.760;2024-03-23T01:01:02;8.93;73.32
79010;DHT22;73031;44.726;37.760;2024-03-23T01:02:04;8.90;73.17
79010;DHT22;73031;44.726;37.760;2024-03-23T01:03:05;8.87;73.29
79010;DHT22;73031;44.726;37.760;2024-03-23T01:04:07;8.87;73.56
79010;DHT22;73031;44.726;37.760;2024-03-23T01:05:08;8.87;73.95
79010;DHT22;73031;44.726;37.760;2024-03-23T01:06:09;8.87;73.79
79010;DHT22;73031;44.726;37.760;2024-03-23T01:07:10;8.90;73.87
79010;DHT22;73031;44.726;37.760;2024-03-23T01:08:11;8.89;72.94
79010;DHT22;73031;44.726;37.760;2024-03-23T01:09:12;8.90;72.48
79010;DHT22;73031;44.726;37.760;2024-03-23T01:10:14;8.86;72.87
79010;DHT22;73031;44.726;37.760;2024-03-23T01:11:15;8.85;72.22
79010;DHT22;73031;44.726;37.760;2024-03-23T01:12:16;8.85;73.16
79010;DHT22;73031;44.726;37.760;2024-03-23T01:13:17;8.83;73.09
79010;DHT22;73031;44.726;37.760;2024-03-23T01:14:21;8.82;73.27
79010;DHT22;73031;44.726;37.760;2024-03-23T01:15:23;8.85;72.99
79010;DHT22;73031;44.726;37.760;2024-03-23T01:16:24;8.85;73.06
79010;DHT22;73031;44.726;37.760;2024-03-23T01:17:26;8.80;73.01
79010;DHT22;73031;44.726;37.760;2024-03-23T01:18:27;8.82;72.58
79010;DHT22;73031;44.726;37.760;2024-03-23T01:19:29;8.80;73.19
79010;DHT22;73031;44.726;37.760;2024-03-23T01:20:31;8.82;72.82
79010;DHT22;73031;44.726;37.760;2024-03-23T01:21:32;8.79;73.20
79010;DHT22;73031;44.726;37.760;2024-03-23T01:22:33;8.80;73.53
79010;DHT22;73031;44.726;37.760;2024-03-23T01:23:34;8.82;73.05
79010;DHT22;73031;44.726;37.760;2024-03-23T01:24:36;8.82;72.74
79010;DHT22;73031;44.726;37.760;2024-03-23T01:25:37;8.79;73.41
79010;DHT22;73031;44.726;37.760;2024-03-23T01:26:38;8.82;73.00
79010;DHT22;73031;44.726;37.760;2024-03-23T01:27:40;8.83;72.90
79010;DHT22;73031;44.726;37.760;2024-03-23T01:28:41;8.83;73.53
79010;DHT22;73031;44.726;37.760;2024-03-23T01:29:42;8.85;73.27
79010;DHT22;73031;44.726;37.760;2024-03-23T01:30:43;8.87;72.97
79010;DHT22;73031;44.726;37.760;2024-03-23T01:31:44;8.95;74.15
79010;DHT22;73031;44.726;37.760;2024-03-23T01:32:46;8.93;73.15
79010;DHT22;73031;44.726;37.760;2024-03-23T01:33:47;8.93;72.47
79010;DHT22;73031;44.726;37.760;2024-03-23T01:34:48;8.87;72.03
79010;DHT22;73031;44.726;37.760;2024-03-23T01:35:49;8.87;72.20
79010;DHT22;73031;44.726;37.760;2024-03-23T01:36:51;8.85;72.50
79010;DHT22;73031;44.726;37.760;2024-03-23T01:37:52;8.87;72.91
79010;DHT22;73031;44.726;37.760;2024-03-23T01:38:53;8.83;72.70
79010;DHT22;73031;44.726;37.760;2024-03-23T01:39:54;8.79;72.46
79010;DHT22;73031;44.726;37.760;2024-03-23T01:40:58;8.76;72.63
79010;DHT22;73031;44.726;37.760;2024-03-23T01:42:04;8.80;72.76
79010;DHT22;73031;44.726;37.760;2024-03-23T01:43:07;8.80;72.96
79010;DHT22;73031;44.726;37.760;2024-03-23T01:44:09;8.86;73.30
79010;DHT22;73031;44.726;37.760;2024-03-23T01:45:10;8.92;73.14
79010;DHT22;73031;44.726;37.760;2024-03-23T01:46:11;8.87;73.05
79010;DHT22;73031;44.726;37.760;2024-03-23T01:47:13;8.89;72.97
79010;DHT22;73031;44.726;37.760;2024-03-23T01:48:15;8.86;73.21
79010;DHT22;73031;44.726;37.760;2024-03-23T01:49:16;8.85;73.55
79010;DHT22;73031;44.726;37.760;2024-03-23T01:50:17;8.86;73.16
79010;DHT22;73031;44.726;37.760;2024-03-23T01:51:18;8.85;73.46
79010;DHT22;73031;44.726;37.760;2024-03-23T01:52:19;8.83;73.45
79010;DHT22;73031;44.726;37.760;2024-03-23T01:53:21;8.85;73.49
79010;DHT22;73031;44.726;37.760;2024-03-23T01:54:24;8.83;73.29
79010;DHT22;73031;44.726;37.760;2024-03-23T01:55:25;8.82;73.36
79010;DHT22;73031;44.726;37.760;2024-03-23T01:56:27;8.85;73.84
79010;DHT22;73031;44.726;37.760;2024-03-23T01:57:28;8.87;73.75
79010;DHT22;73031;44.726;37.760;2024-03-23T01:58:29;8.89;73.43
79010;DHT22;73031;44.726;37.760;2024-03-23T01:59:30;8.86;73.81
79010;DHT22;73031;44.726;37.760;2024-03-23T02:00:31;8.87;73.82
79010;DHT22;73031;44.726;37.760;2024-03-23T02:01:33;8.82;73.41
79010;DHT22;73031;44.726;37.760;2024-03-23T02:02:36;8.85;74.18
79010;DHT22;73031;44.726;37.760;2024-03-23T02:03:37;8.90;74.52
79010;DHT22;73031;44.726;37.760;2024-03-23T02:04:39;8.96;73.56
79010;DHT22;73031;44.726;37.760;2024-03-23T02:05:40;8.95;73.14
79010;DHT22;73031;44.726;37.760;2024-03-23T02:06:41;8.87;73.71
79010;DHT22;73031;44.726;37.760;2024-03-23T02:07:42;8.86;73.93
79010;DHT22;73031;44.726;37.760;2024-03-23T02:08:44;8.89;74.01
79010;DHT22;73031;44.726;37.760;2024-03-23T02:09:46;8.92;73.96
79010;DHT22;73031;44.726;37.760;2024-03-23T02:10:50;8.95;73.55
79010;DHT22;73031;44.726;37.760;2024-03-23T02:11:51;8.93;73.96
79010;DHT22;73031;44.726;37.760;2024-03-23T02:12:52;8.92;73.65
79010;DHT22;73031;44.726;37.760;2024-03-23T02:13:54;8.95;73.46
79010;DHT22;73031;44.726;37.760;2024-03-23T02:14:55;8.95;73.62
79010;DHT22;73031;44.726;37.760;2024-03-23T02:15:56;8.95;73.84
79010;DHT22;73031;44.726;37.760;2024-03-23T02:16:57;8.92;73.61
79010;DHT22;73031;44.726;37.760;2024-03-23T02:17:58;8.89;73.48
79010;DHT22;73031;44.726;37.760;2024-03-23T02:18:59;8.85;73.78
79010;DHT22;73031;44.726;37.760;2024-03-23T02:20:00;8.87;73.95
79010;DHT22;73031;44.726;37.760;2024-03-23T02:21:02;8.92;73.66
79010;DHT22;73031;44.726;37.760;2024-03-23T02:22:04;8.95;73.82
79010;DHT22;73031;44.726;37.760;2024-03-23T02:23:05;8.95;74.11
79010;DHT22;73031;44.726;37.760;2024-03-23T02:24:07;8.99;74.35
79010;DHT22;73031;44.726;37.760;2024-03-23T02:25:08;9.06;74.38
79010;DHT22;73031;44.726;37.760;2024-03-23T02:26:09;9.03;73.74
79010;DHT22;73031;44.726;37.760;2024-03-23T02:27:11;9.03;73.97
79010;DHT22;73031;44.726;37.760;2024-03-23T02:28:12;9.03;74.06
79010;DHT22;73031;44.726;37.760;2024-03-23T02:29:13;9.07;73.76
79010;DHT22;73031;44.726;37.760;2024-03-23T02:30:15;9.03;73.47
79010;DHT22;73031;44.726;37.760;2024-03-23T02:31:16;9.13;74.05
79010;DHT22;73031;44.726;37.760;2024-03-23T02:32:17;9.14;73.51
79010;DHT22;73031;44.726;37.760;2024-03-23T02:33:18;9.19;73.63
79010;DHT22;73031;44.726;37.760;2024-03-23T02:34:19;9.23;73.21
79010;DHT22;73031;44.726;37.760;2024-03-23T02:35:20;9.21;73.54
79010;DHT22;73031;44.726;37.760;2024-03-23T02:36:21;9.21;72.15
79010;DHT22;73031;44.726;37.760;2024-03-23T02:37:22;9.17;72.24
79010;DHT22;73031;44.726;37.760;2024-03-23T02:38:24;9.16;72.16
79010;DHT22;73031;44.726;37.760;2024-03-23T02:39:25;9.16;72.10
79010;DHT22;73031;44.726;37.760;2024-03-23T02:40:27;9.14;72.51
79010;DHT22;73031;44.726;37.760;2024-03-23T02:41:28;9.13;72.57
79010;DHT22;73031;44.726;37.760;2024-03-23T02:42:29;9.12;73.04
79010;DHT22;73031;44.726;37.760;2024-03-23T02:43:30;9.12;73.04
79010;DHT22;73031;44.726;37.760;2024-03-23T02:44:32;9.14;72.70
79010;DHT22;73031;44.726;37.760;2024-03-23T02:45:33;9.14;73.08
79010;DHT22;73031;44.726;37.760;2024-03-23T02:46:34;9.17;73.51
79010;DHT22;73031;44.726;37.760;2024-03-23T02:47:35;9.19;73.21
79010;DHT22;73031;44.726;37.760;2024-03-23T02:48:36;9.17;73.35
79010;DHT22;73031;44.726;37.760;2024-03-23T02:49:37;9.17;73.37
79010;DHT22;73031;44.726;37.760;2024-03-23T02:50:38;9.17;73.49
79010;DHT22;73031;44.726;37.760;2024-03-23T02:51:39;9.23;73.08
79010;DHT22;73031;44.726;37.760;2024-03-23T02:52:41;9.19;72.66
79010;DHT22;73031;44.726;37.760;2024-03-23T02:53:42;9.16;72.47
79010;DHT22;73031;44.726;37.760;2024-03-23T02:54:43;9.12;72.61
79010;DHT22;73031;44.726;37.760;2024-03-23T02:55:46;9.10;73.66
79010;DHT22;73031;44.726;37.760;2024-03-23T02:56:47;9.17;72.91
79010;DHT22;73031;44.726;37.760;2024-03-23T02:57:48;9.20;72.97
79010;DHT22;73031;44.726;37.760;2024-03-23T02:58:49;9.19;72.93
79010;DHT22;73031;44.726;37.760;2024-03-23T02:59:50;9.17;73.24
79010;DHT22;73031;44.726;37.760;2024-03-23T03:00:51;9.19;72.92
79010;DHT22;73031;44.726;37.760;2024-03-23T03:01:52;9.19;73.17
79010;DHT22;73031;44.726;37.760;2024-03-23T03:02:53;9.20;72.72
79010;DHT22;73031;44.726;37.760;2024-03-23T03:03:57;9.13;72.85
79010;DHT22;73031;44.726;37.760;2024-03-23T03:04:59;9.07;73.22
79010;DHT22;73031;44.726;37.760;2024-03-23T03:06:00;9.10;73.89
79010;DHT22;73031;44.726;37.760;2024-03-23T03:07:01;9.10;73.75
79010;DHT22;73031;44.726;37.760;2024-03-23T03:08:03;9.14;73.23
79010;DHT22;73031;44.726;37.760;2024-03-23T03:09:04;9.14;73.59
79010;DHT22;73031;44.726;37.760;2024-03-23T03:10:05;9.14;72.67
79010;DHT22;73031;44.726;37.760;2024-03-23T03:11:08;9.10;73.04
79010;DHT22;73031;44.726;37.760;2024-03-23T03:12:09;9.17;73.30
79010;DHT22;73031;44.726;37.760;2024-03-23T03:13:10;9.16;72.36
79010;DHT22;73031;44.726;37.760;2024-03-23T03:14:11;9.12;72.10
79010;DHT22;73031;44.726;37.760;2024-03-23T03:15:13;9.10;72.55
79010;DHT22;73031;44.726;37.760;2024-03-23T03:16:14;9.12;72.47
79010;DHT22;73031;44.726;37.760;2024-03-23T03:17:15;9.12;72.68
79010;DHT22;73031;44.726;37.760;2024-03-23T03:18:16;9.12;72.97
79010;DHT22;73031;44.726;37.760;2024-03-23T03:19:17;9.14;72.61
79010;DHT22;73031;44.726;37.760;2024-03-23T03:20:18;9.10;72.12
79010;DHT22;73031;44.726;37.760;2024-03-23T03:21:20;9.14;72.39
79010;DHT22;73031;44.726;37.760;2024-03-23T03:22:21;9.16;72.31
79010;DHT22;73031;44.726;37.760;2024-03-23T03:23:23;9.16;72.32
79010;DHT22;73031;44.726;37.760;2024-03-23T03:24:24;9.16;72.24
79010;DHT22;73031;44.726;37.760;2024-03-23T03:25:25;9.20;72.16
79010;DHT22;73031;44.726;37.760;2024-03-23T03:26:26;9.16;72.38
79010;DHT22;73031;44.726;37.760;2024-03-23T03:27:27;9.16;72.41
79010;DHT22;73031;44.726;37.760;2024-03-23T03:28:28;9.16;72.89
79010;DHT22;73031;44.726;37.760;2024-03-23T03:29:31;9.17;72.68
79010;DHT22;73031;44.726;37.760;2024-03-23T03:30:36;9.17;72.70
79010;DHT22;73031;44.726;37.760;2024-03-23T03:31:38;9.13;72.81
79010;DHT22;73031;44.726;37.760;2024-03-23T03:32:39;9.10;72.80
79010;DHT22;73031;44.726;37.760;2024-03-23T03:33:41;9.09;73.31
79010;DHT22;73031;44.726;37.760;2024-03-23T03:34:42;9.09;73.41
79010;DHT22;73031;44.726;37.760;2024-03-23T03:35:43;9.06;73.55
79010;DHT22;73031;44.726;37.760;2024-03-23T03:36:44;9.07;73.67
79010;DHT22;73031;44.726;37.760;2024-03-23T03:37:45;9.04;73.41
79010;DHT22;73031;44.726;37.760;2024-03-23T03:38:46;9.13;74.27
79010;DHT22;73031;44.726;37.760;2024-03-23T03:39:47;9.16;74.73
79010;DHT22;73031;44.726;37.760;2024-03-23T03:40:48;9.23;74.78
79010;DHT22;73031;44.726;37.760;2024-03-23T03:41:50;9.26;74.30
79010;DHT22;73031;44.726;37.760;2024-03-23T03:42:51;9.24;73.73
79010;DHT22;73031;44.726;37.760;2024-03-23T03:43:52;9.26;73.30
79010;DHT22;73031;44.726;37.760;2024-03-23T03:44:53;9.27;73.36
79010;DHT22;73031;44.726;37.760;2024-03-23T03:45:59;9.24;73.49
79010;DHT22;73031;44.726;37.760;2024-03-23T03:47:00;9.23;73.55
79010;DHT22;73031;44.726;37.760;2024-03-23T03:48:01;9.23;73.57
79010;DHT22;73031;44.726;37.760;2024-03-23T03:49:02;9.20;73.53
79010;DHT22;73031;44.726;37.760;2024-03-23T03:50:03;9.21;73.48
79010;DHT22;73031;44.726;37.760;2024-03-23T03:51:05;9.21;73.79
79010;DHT22;73031;44.726;37.760;2024-03-23T03:52:06;9.20;73.24
79010;DHT22;73031;44.726;37.760;2024-03-23T03:53:07;9.19;73.22
79010;DHT22;73031;44.726;37.760;2024-03-23T03:54:08;9.19;73.45
79010;DHT22;73031;44.726;37.760;2024-03-23T03:55:13;9.19;73.55
79010;DHT22;73031;44.726;37.760;2024-03-23T03:56:15;9.19;73.70
79010;DHT22;73031;44.726;37.760;2024-03-23T03:57:19;9.19;73.25
79010;DHT22;73031;44.726;37.760;2024-03-23T03:58:20;9.20;73.50
79010;DHT22;73031;44.726;37.760;2024-03-23T03:59:21;9.19;73.46
79010;DHT22;73031;44.726;37.760;2024-03-23T04:00:22;9.20;73.75
79010;DHT22;73031;44.726;37.760;2024-03-23T04:01:23;9.24;73.85
79010;DHT22;73031;44.726;37.760;2024-03-23T04:02:24;9.23;72.81
79010;DHT22;73031;44.726;37.760;2024-03-23T04:03:26;9.20;72.76
79010;DHT22;73031;44.726;37.760;2024-03-23T04:04:27;9.19;72.70
79010;DHT22;73031;44.726;37.760;2024-03-23T04:05:28;9.19;72.90
79010;DHT22;73031;44.726;37.760;2024-03-23T04:06:30;9.26;74.16
79010;DHT22;73031;44.726;37.760;2024-03-23T04:07:31;9.35;73.47
79010;DHT22;73031;44.726;37.760;2024-03-23T04:08:32;9.35;72.77
79010;DHT22;73031;44.726;37.760;2024-03-23T04:09:34;9.35;72.45
79010;DHT22;73031;44.726;37.760;2024-03-23T04:10:35;9.35;72.61
79010;DHT22;73031;44.726;37.760;2024-03-23T04:11:36;9.37;72.05
79010;DHT22;73031;44.726;37.760;2024-03-23T04:12:37;9.30;72.34
79010;DHT22;73031;44.726;37.760;2024-03-23T04:13:38;9.32;72.47
79010;DHT22;73031;44.726;37.760;2024-03-23T04:14:42;9.35;72.73
79010;DHT22;73031;44.726;37.760;2024-03-23T04:15:43;9.38;72.50
79010;DHT22;73031;44.726;37.760;2024-03-23T04:16:44;9.41;73.08
79010;DHT22;73031;44.726;37.760;2024-03-23T04:17:45;9.54;74.17
79010;DHT22;73031;44.726;37.760;2024-03-23T04:18:46;9.68;73.42
79010;DHT22;73031;44.726;37.760;2024-03-23T04:19:48;9.76;72.63
79010;DHT22;73031;44.726;37.760;2024-03-23T04:20:51;9.86;72.40
79010;DHT22;73031;44.726;37.760;2024-03-23T04:21:52;9.85;72.38
79010;DHT22;73031;44.726;37.760;2024-03-23T04:22:53;9.85;70.59
79010;DHT22;73031;44.726;37.760;2024-03-23T04:23:54;9.83;70.02
79010;DHT22;73031;44.726;37.760;2024-03-23T04:24:56;9.78;70.33
79010;DHT22;73031;44.726;37.760;2024-03-23T04:26:03;9.86;72.73
79010;DHT22;73031;44.726;37.760;2024-03-23T04:27:04;9.87;70.30
79010;DHT22;73031;44.726;37.760;2024-03-23T04:28:06;9.82;71.21
79010;DHT22;73031;44.726;37.760;2024-03-23T04:29:07;9.86;71.56
79010;DHT22;73031;44.726;37.760;2024-03-23T04:30:09;9.81;71.07
79010;DHT22;73031;44.726;37.760;2024-03-23T04:31:12;9.83;71.89
79010;DHT22;73031;44.726;37.760;2024-03-23T04:32:14;9.83;71.08
79010;DHT22;73031;44.726;37.760;2024-03-23T04:33:15;9.83;70.88
79010;DHT22;73031;44.726;37.760;2024-03-23T04:34:16;9.78;71.31
79010;DHT22;73031;44.726;37.760;2024-03-23T04:35:17;9.81;71.15
79010;DHT22;73031;44.726;37.760;2024-03-23T04:36:18;9.81;71.56
79010;DHT22;73031;44.726;37.760;2024-03-23T04:37:20;9.76;71.33
79010;DHT22;73031;44.726;37.760;2024-03-23T04:38:22;9.75;71.06
79010;DHT22;73031;44.726;37.760;2024-03-23T04:39:23;9.76;71.15
79010;DHT22;73031;44.726;37.760;2024-03-23T04:40:25;9.76;71.09
79010;DHT22;73031;44.726;37.760;2024-03-23T04:41:26;9.82;71.43
79010;DHT22;73031;44.726;37.760;2024-03-23T04:42:28;9.83;70.77
79010;DHT22;73031;44.726;37.760;2024-03-23T04:43:29;9.83;70.96
79010;DHT22;73031;44.726;37.760;2024-03-23T04:44:30;9.87;70.83
79010;DHT22;73031;44.726;37.760;2024-03-23T04:45:32;9.89;71.11
79010;DHT22;73031;44.726;37.760;2024-03-23T04:46:33;9.90;71.22
79010;DHT22;73031;44.726;37.760;2024-03-23T04:47:34;9.87;70.45
79010;DHT22;73031;44.726;37.760;2024-03-23T04:48:36;9.86;70.23
79010;DHT22;73031;44.726;37.760;2024-03-23T04:49:37;9.87;71.13
79010;DHT22;73031;44.726;37.760;2024-03-23T04:50:38;9.90;70.43
79010;DHT22;73031;44.726;37.760;2024-03-23T04:51:39;9.85;70.30
79010;DHT22;73031;44.726;37.760;2024-03-23T04:52:42;9.82;70.45
79010;DHT22;73031;44.726;37.760;2024-03-23T04:53:43;9.86;69.97
79010;DHT22;73031;44.726;37.760;2024-03-23T04:54:44;9.83;70.88
79010;DHT22;73031;44.726;37.760;2024-03-23T04:55:48;9.95;71.62
79010;DHT22;73031;44.726;37.760;2024-03-23T04:56:49;10.02;71.87
79010;DHT22;73031;44.726;37.760;2024-03-23T04:57:50;10.03;70.80
79010;DHT22;73031;44.726;37.760;2024-03-23T04:58:52;9.97;70.80
79010;DHT22;73031;44.726;37.760;2024-03-23T04:59:53;9.99;69.97
79010;DHT22;73031;44.726;37.760;2024-03-23T05:00:57;9.99;70.36
79010;DHT22;73031;44.726;37.760;2024-03-23T05:01:58;9.95;71.03
79010;DHT22;73031;44.726;37.760;2024-03-23T05:03:00;9.95;70.27
79010;DHT22;73031;44.726;37.760;2024-03-23T05:04:01;9.99;70.23
79010;DHT22;73031;44.726;37.760;2024-03-23T05:05:03;9.92;70.45
79010;DHT22;73031;44.726;37.760;2024-03-23T05:06:08;9.96;70.92
79010;DHT22;73031;44.726;37.760;2024-03-23T05:07:09;10.04;70.07
79010;DHT22;73031;44.726;37.760;2024-03-23T05:08:10;10.12;70.73
79010;DHT22;73031;44.726;37.760;2024-03-23T05:09:11;10.13;70.32
79010;DHT22;73031;44.726;37.760;2024-03-23T05:10:12;10.13;70.63
79010;DHT22;73031;44.726;37.760;2024-03-23T05:11:14;10.23;69.97
79010;DHT22;73031;44.726;37.760;2024-03-23T05:12:16;10.24;69.70
79010;DHT22;73031;44.726;37.760;2024-03-23T05:13:17;10.27;70.31
79010;DHT22;73031;44.726;37.760;2024-03-23T05:14:19;10.29;69.12
79010;DHT22;73031;44.726;37.760;2024-03-23T05:15:20;10.29;69.33
79010;DHT22;73031;44.726;37.760;2024-03-23T05:16:21;10.29;69.07
79010;DHT22;73031;44.726;37.760;2024-03-23T05:17:22;10.30;69.08
79010;DHT22;73031;44.726;37.760;2024-03-23T05:18:23;10.24;68.37
79010;DHT22;73031;44.726;37.760;2024-03-23T05:19:27;10.30;68.56
79010;DHT22;73031;44.726;37.760;2024-03-23T05:20:29;10.25;69.48
79010;DHT22;73031;44.726;37.760;2024-03-23T05:21:31;10.27;69.88
79010;DHT22;73031;44.726;37.760;2024-03-23T05:22:32;10.36;69.23
79010;DHT22;73031;44.726;37.760;2024-03-23T05:23:33;10.36;68.75
79010;DHT22;73031;44.726;37.760;2024-03-23T05:24:37;10.33;69.70
79010;DHT22;73031;44.726;37.760;2024-03-23T05:25:38;10.33;68.04
79010;DHT22;73031;44.726;37.760;2024-03-23T05:26:39;10.30;68.62
79010;DHT22;73031;44.726;37.760;2024-03-23T05:27:40;10.37;69.34
79010;DHT22;73031;44.726;37.760;2024-03-23T05:28:41;10.47;69.14
79010;DHT22;73031;44.726;37.760;2024-03-23T05:29:42;10.48;69.53
79010;DHT22;73031;44.726;37.760;2024-03-23T05:30:44;10.54;69.68
79010;DHT22;73031;44.726;37.760;2024-03-23T05:31:49;10.66;69.12
79010;DHT22;73031;44.726;37.760;2024-03-23T05:32:50;10.71;67.54
79010;DHT22;73031;44.726;37.760;2024-03-23T05:33:52;10.68;67.18
79010;DHT22;73031;44.726;37.760;2024-03-23T05:34:53;10.65;68.75
79010;DHT22;73031;44.726;37.760;2024-03-23T05:35:57;10.69;68.44
79010;DHT22;73031;44.726;37.760;2024-03-23T05:36:59;10.75;67.19
79010;DHT22;73031;44.726;37.760;2024-03-23T05:38:00;10.72;66.83
79010;DHT22;73031;44.726;37.760;2024-03-23T05:39:01;10.76;67.43
79010;DHT22;73031;44.726;37.760;2024-03-23T05:40:03;10.76;67.28
79010;DHT22;73031;44.726;37.760;2024-03-23T05:41:04;10.71;67.33
79010;DHT22;73031;44.726;37.760;2024-03-23T05:42:06;10.66;67.67
79010;DHT22;73031;44.726;37.760;2024-03-23T05:43:07;10.68;67.03
79010;DHT22;73031;44.726;37.760;2024-03-23T05:44:10;10.66;67.50
79010;DHT22;73031;44.726;37.760;2024-03-23T05:45:11;10.71;67.51
79010;DHT22;73031;44.726;37.760;2024-03-23T05:46:13;10.78;68.04
79010;DHT22;73031;44.726;37.760;2024-03-23T05:47:14;10.82;67.06
79010;DHT22;73031;44.726;37.760;2024-03-23T05:48:17;10.83;66.88
79010;DHT22;73031;44.726;37.760;2024-03-23T05:49:18;10.92;67.39
79010;DHT22;73031;44.726;37.760;2024-03-23T05:50:19;10.93;67.39
79010;DHT22;73031;44.726;37.760;2024-03-23T05:51:20;11.03;67.16
79010;DHT22;73031;44.726;37.760;2024-03-23T05:52:21;11.19;66.21
79010;DHT22;73031;44.726;37.760;2024-03-23T05:53:24;11.35;66.72
79010;DHT22;73031;44.726;37.760;2024-03-23T05:54:25;11.74;64.54
79010;DHT22;73031;44.726;37.760;2024-03-23T05:55:26;12.13;63.29
79010;DHT22;73031;44.726;37.760;2024-03-23T05:56:28;12.29;62.27
79010;DHT22;73031;44.726;37.760;2024-03-23T05:57:29;12.83;61.60
79010;DHT22;73031;44.726;37.760;2024-03-23T05:58:30;13.14;60.29
79010;DHT22;73031;44.726;37.760;2024-03-23T05:59:32;13.64;60.06
79010;DHT22;73031;44.726;37.760;2024-03-23T06:00:33;13.98;58.77
79010;DHT22;73031;44.726;37.760;2024-03-23T06:01:34;14.03;57.41
79010;DHT22;73031;44.726;37.760;2024-03-23T06:02:36;14.37;56.12
79010;DHT22;73031;44.726;37.760;2024-03-23T06:03:37;14.51;55.50
79010;DHT22;73031;44.726;37.760;2024-03-23T06:04:38;14.44;55.01
79010;DHT22;73031;44.726;37.760;2024-03-23T06:05:40;14.72;55.21
79010;DHT22;73031;44.726;37.760;2024-03-23T06:06:43;15.00;54.41
79010;DHT22;73031;44.726;37.760;2024-03-23T06:07:44;15.11;54.77
79010;DHT22;73031;44.726;37.760;2024-03-23T06:08:45;15.28;55.43
79010;DHT22;73031;44.726;37.760;2024-03-23T06:09:46;15.93;53.86
79010;DHT22;73031;44.726;37.760;2024-03-23T06:10:47;16.21;52.25
79010;DHT22;73031;44.726;37.760;2024-03-23T06:11:49;16.50;52.48
79010;DHT22;73031;44.726;37.760;2024-03-23T06:12:50;17.05;51.35
79010;DHT22;73031;44.726;37.760;2024-03-23T06:13:52;17.31;50.45
79010;DHT22;73031;44.726;37.760;2024-03-23T06:14:53;17.72;48.53
79010;DHT22;73031;44.726;37.760;2024-03-23T06:15:55;17.83;47.46
79010;DHT22;73031;44.726;37.760;2024-03-23T06:16:56;17.67;46.40
79010;DHT22;73031;44.726;37.760;2024-03-23T06:17:57;17.51;46.96
79010;DHT22;73031;44.726;37.760;2024-03-23T06:18:58;17.38;47.05
79010;DHT22;73031;44.726;37.760;2024-03-23T06:20:00;17.30;48.20
79010;DHT22;73031;44.726;37.760;2024-03-23T06:21:02;17.38;47.46
79010;DHT22;73031;44.726;37.760;2024-03-23T06:22:03;17.24;47.44
79010;DHT22;73031;44.726;37.760;2024-03-23T06:23:04;17.15;48.27
79010;DHT22;73031;44.726;37.760;2024-03-23T06:24:05;17.23;48.22
79010;DHT22;73031;44.726;37.760;2024-03-23T06:25:06;17.26;48.45
79010;DHT22;73031;44.726;37.760;2024-03-23T06:26:08;17.60;48.25
79010;DHT22;73031;44.726;37.760;2024-03-23T06:27:10;17.88;46.75
79010;DHT22;73031;44.726;37.760;2024-03-23T06:28:11;18.09;46.34
79010;DHT22;73031;44.726;37.760;2024-03-23T06:29:12;18.12;45.44
79010;DHT22;73031;44.726;37.760;2024-03-23T06:30:13;18.06;45.63
79010;DHT22;73031;44.726;37.760;2024-03-23T06:31:14;17.89;46.74
79010;DHT22;73031;44.726;37.760;2024-03-23T06:32:16;18.09;47.38
79010;DHT22;73031;44.726;37.760;2024-03-23T06:33:17;18.51;45.00
79010;DHT22;73031;44.726;37.760;2024-03-23T06:34:18;18.95;44.86
79010;DHT22;73031;44.726;37.760;2024-03-23T06:35:19;19.28;45.66
79010;DHT22;73031;44.726;37.760;2024-03-23T06:36:20;19.37;43.39
79010;DHT22;73031;44.726;37.760;2024-03-23T06:37:21;19.33;43.57
79010;DHT22;73031;44.726;37.760;2024-03-23T06:38:23;19.33;43.11
79010;DHT22;73031;44.726;37.760;2024-03-23T06:39:24;19.19;44.64
79010;DHT22;73031;44.726;37.760;2024-03-23T06:40:25;19.20;45.45
79010;DHT22;73031;44.726;37.760;2024-03-23T06:41:26;19.31;45.41
79010;DHT22;73031;44.726;37.760;2024-03-23T06:42:27;19.46;44.41
79010;DHT22;73031;44.726;37.760;2024-03-23T06:43:28;19.41;43.64
79010;DHT22;73031;44.726;37.760;2024-03-23T06:44:30;19.33;44.41
79010;DHT22;73031;44.726;37.760;2024-03-23T06:45:32;19.38;44.39
79010;DHT22;73031;44.726;37.760;2024-03-23T06:46:33;19.43;44.49
79010;DHT22;73031;44.726;37.760;2024-03-23T06:47:34;19.60;43.52
79010;DHT22;73031;44.726;37.760;2024-03-23T06:48:35;19.74;42.71
79010;DHT22;73031;44.726;37.760;2024-03-23T06:49:36;19.78;43.03
79010;DHT22;73031;44.726;37.760;2024-03-23T06:50:37;19.69;42.61
79010;DHT22;73031;44.726;37.760;2024-03-23T06:51:39;19.62;42.55
79010;DHT22;73031;44.726;37.760;2024-03-23T06:52:40;19.60;42.70
79010;DHT22;73031;44.726;37.760;2024-03-23T06:53:41;19.43;42.80
79010;DHT22;73031;44.726;37.760;2024-03-23T06:54:42;19.40;43.23
79010;DHT22;73031;44.726;37.760;2024-03-23T06:55:50;19.41;43.14
79010;DHT22;73031;44.726;37.760;2024-03-23T06:56:52;19.41;42.74
79010;DHT22;73031;44.726;37.760;2024-03-23T06:57:53;19.15;43.39
79010;DHT22;73031;44.726;37.760;2024-03-23T06:58:54;19.20;43.57
79010;DHT22;73031;44.726;37.760;2024-03-23T06:59:55;19.33;43.27
79010;DHT22;73031;44.726;37.760;2024-03-23T07:00:57;19.50;44.15
79010;DHT22;73031;44.726;37.760;2024-03-23T07:01:58;19.74;42.66
79010;DHT22;73031;44.726;37.760;2024-03-23T07:03:02;19.92;42.91
79010;DHT22;73031;44.726;37.760;2024-03-23T07:04:04;20.02;41.52
79010;DHT22;73031;44.726;37.760;2024-03-23T07:05:06;19.85;41.16
79010;DHT22;73031;44.726;37.760;2024-03-23T07:06:09;19.55;41.79
79010;DHT22;73031;44.726;37.760;2024-03-23T07:07:11;19.49;42.21
79010;DHT22;73031;44.726;37.760;2024-03-23T07:08:12;19.54;43.19
79010;DHT22;73031;44.726;37.760;2024-03-23T07:09:15;19.86;43.20
79010;DHT22;73031;44.726;37.760;2024-03-23T07:10:16;20.16;41.27
79010;DHT22;73031;44.726;37.760;2024-03-23T07:11:23;19.85;42.17
79010;DHT22;73031;44.726;37.760;2024-03-23T07:12:24;20.06;40.92
79010;DHT22;73031;44.726;37.760;2024-03-23T07:13:25;19.71;41.03
79010;DHT22;73031;44.726;37.760;2024-03-23T07:14:26;19.65;41.60
79010;DHT22;73031;44.726;37.760;2024-03-23T07:15:27;19.78;41.34
79010;DHT22;73031;44.726;37.760;2024-03-23T07:16:29;20.02;41.44
79010;DHT22;73031;44.726;37.760;2024-03-23T07:17:30;20.43;40.38
79010;DHT22;73031;44.726;37.760;2024-03-23T07:18:33;20.60;39.67
79010;DHT22;73031;44.726;37.760;2024-03-23T07:19:35;20.61;40.31